NVSS

Details ICAO NVSS (SON)
Name Santo Pekoa Intl
Region Vanuatu
Timezone Pacific/Efate (UTC+11.0)
Plans Departing 13
Arriving 20
Stats Elevation 184 ft / 56 m (AMSL)
Location -15.504600° 167.220000°
Runways 1
Magnetic Variation 10.946° E
Sunrise 2018-10-20 18:21:41 UTC / 2018-10-21 05:21:41 Local
Sunset 2018-10-21 06:52:18 UTC / 2018-10-21 17:52:18 Local
Advertisement - Login to hide

Runways

ID Width Length Bearing (true/mag) Surface Threshold Overrun Markings Lighting
12 98 ft / 30 m 6,569 ft / 2,002 m 129.30° / 118.36° ASPHALT 0 ft / 0 m 203 ft / 62 m APP EDGE THRESHOLD
30 98 ft / 30 m 6,569 ft / 2,002 m 309.30° / 298.35° ASPHALT 0 ft / 0 m 194 ft / 59 m APP EDGE THRESHOLD

Map

Weather


0- 5 10 15 20 25 30 35+ Temperature / °C

Clouds and Precipitation
Forecast for 2018-10-21 12:00 UTC. Updated an hour ago

Ground ~20,000 ft ~40,000 ft Winds

METAR

Not found

TAF

TAF AMD NVSS 210153Z 2100/2124 13510KT 9999 BKN020 OVC040 INTER 2101/2106 8000 SHRA BKN018 OVC040 PROB40 INTER 2103/2106 4000 -TSRA FEW010 BKN016 FEW025CB OVC035

Frequencies

Unicom 118.10 MHz CTAF
Warning: Do not use this data for real-world aviation or navigation. No guarantee of current accuracy is given.